63.4°F
Current conditions from King Hill
Updated every 5 minutes
 
  Tuesday September 30, 2014

Station Historical Data
Daily Summary for July 9, 2012 Units:  Metric    English   Both
« Previous Day
Next Day »
Daily Weekly Monthly Yearly Custom
  High: Low: Average:
Temperature: 23.4 °C 9.8 °C 16.7 °C
Dew Point: 12.4 °C 8.2 °C 9.8 °C
Humidity: 95% 39% 67%
Wind Speed: 12.9km/h 0km/h 4.2km/h
Wind Gust: 29km/h - -
Wind- - WNW
Pressure: 1014.1 hPa 1010.7 hPa -
Precipitation: 0 mm    
Historical Graphs
 
 
Tabular Data for July 9, 2012
Time Temperature Dew Point Pressure Wind Wind Speed Wind Gust Humidity Daily Rainfall
00:00 13 °C 9.6 °C 1011.1 hPa Calm     80% 0 mm
00:05 12.8 °C 9.6 °C 1011.1 hPa Calm     81% 0 mm
00:10 12.7 °C 9.7 °C 1011.1 hPa Calm     82% 0 mm
00:15 12.6 °C 9.6 °C 1011.1 hPa Calm     82% 0 mm
00:20 12.6 °C 9.7 °C 1011.4 hPa Calm     83% 0 mm
00:25 12.6 °C 9.7 °C 1011.4 hPa Calm     83% 0 mm
00:30 12.4 °C 9.6 °C 1011.1 hPa Calm     83% 0 mm
00:35 12.3 °C 9.7 °C 1011.1 hPa Calm     84% 0 mm
00:40 12.2 °C 9.6 °C 1011.1 hPa Calm     84% 0 mm
00:45 12.2 °C 9.7 °C 1011.1 hPa Calm     85% 0 mm
00:50 12.3 °C 9.9 °C 1011.1 hPa Calm     85% 0 mm
00:55 12.5 °C 9.9 °C 1011.1 hPa Calm     84% 0 mm
01:00 12.6 °C 9.9 °C 1011.1 hPa Calm     84% 0 mm
01:05 12.6 °C 9.7 °C 1011.1 hPa Calm     83% 0 mm
01:10 12.4 °C 9.6 °C 1011.1 hPa Calm     83% 0 mm
01:15 12.2 °C 9.4 °C 1011.1 hPa Calm     83% 0 mm
01:20 11.9 °C 9.1 °C 1011.1 hPa Calm     83% 0 mm
01:25 11.9 °C 9.5 °C 1010.7 hPa Calm     85% 0 mm
01:30 12 °C 9.4 °C 1010.7 hPa Calm     84% 0 mm
01:35 12.1 °C 9.6 °C 1010.7 hPa Calm     85% 0 mm
01:40 12.2 °C 9.8 °C 1010.7 hPa Calm     85% 0 mm
01:45 12.4 °C 9.6 °C 1011.1 hPa Calm     83% 0 mm
01:50 12.4 °C 9.8 °C 1011.1 hPa Calm     84% 0 mm
01:55 12.7 °C 9.9 °C 1011.1 hPa Calm     83% 0 mm
02:00 12.7 °C 9.8 °C 1011.1 hPa Calm     83% 0 mm
02:05 12.7 °C 9.7 °C 1011.1 hPa Calm     82% 0 mm
02:10 12.6 °C 9.6 °C 1011.1 hPa Calm     82% 0 mm
02:15 12.4 °C 9.6 °C 1011.1 hPa Calm     83% 0 mm
02:20 12.4 °C 9.6 °C 1011.1 hPa Calm     83% 0 mm
02:25 12.4 °C 9.6 °C 1011.1 hPa Calm     83% 0 mm
02:30 12.2 °C 9.4 °C 1010.7 hPa Calm     83% 0 mm
02:34 12.2 °C 9.6 °C 1010.7 hPa Calm     84% 0 mm
02:40 12.1 °C 9.4 °C 1010.7 hPa Calm     84% 0 mm
02:45 11.9 °C 9.3 °C 1010.7 hPa Calm     84% 0 mm
02:50 11.9 °C 9.3 °C 1010.7 hPa Calm     84% 0 mm
02:55 11.6 °C 9 °C 1010.7 hPa Calm     84% 0 mm
03:00 11.3 °C 8.7 °C 1011.1 hPa Calm     84% 0 mm
03:05 11.3 °C 9 °C 1010.7 hPa Calm     86% 0 mm
03:09 11.3 °C 9 °C 1011.1 hPa Calm     86% 0 mm
03:15 11.4 °C 9.1 °C 1011.1 hPa Calm     86% 0 mm
03:20 11.7 °C 9.4 °C 1011.1 hPa Calm     86% 0 mm
03:25 12 °C 9.6 °C 1011.1 hPa Calm     85% 0 mm
03:30 12.1 °C 9.4 °C 1011.1 hPa Calm     84% 0 mm
03:35 12 °C 9.4 °C 1011.1 hPa Calm     84% 0 mm
03:40 11.8 °C 9.1 °C 1011.1 hPa Calm     83% 0 mm
03:45 11.5 °C 8.9 °C 1011.1 hPa Calm     84% 0 mm
03:50 11.5 °C 9.1 °C 1011.4 hPa Calm     85% 0 mm
03:55 11.3 °C 8.9 °C 1011.4 hPa Calm     85% 0 mm
04:00 11.2 °C 8.8 °C 1011.4 hPa Calm     85% 0 mm
04:04 11.2 °C 8.9 °C 1011.4 hPa Calm     86% 0 mm
04:10 10.9 °C 8.7 °C 1011.4 hPa Calm     86% 0 mm
04:15 10.7 °C 8.5 °C 1011.4 hPa Calm     86% 0 mm
04:19 10.6 °C 8.4 °C 1011.7 hPa Calm     86% 0 mm
04:25 10.5 °C 8.4 °C 1011.7 hPa Calm     87% 0 mm
04:29 10.3 °C 8.3 °C 1011.7 hPa Calm     87% 0 mm
04:35 10.4 °C 8.5 °C 1011.7 hPa Calm     88% 0 mm
04:40 10.4 °C 8.6 °C 1011.7 hPa Calm     88% 0 mm
04:45 10.4 °C 8.5 °C 1011.7 hPa Calm     88% 0 mm
04:50 10.4 °C 8.7 °C 1011.7 hPa Calm     89% 0 mm
04:55 10.3 °C 8.6 °C 1011.7 hPa Calm     89% 0 mm
04:59 10.2 °C 8.4 °C 1011.7 hPa Calm     89% 0 mm
05:05 10 °C 8.3 °C 1011.7 hPa Calm     89% 0 mm
05:10 9.9 °C 8.2 °C 1011.7 hPa Calm     89% 0 mm
05:15 9.9 °C 8.2 °C 1011.7 hPa Calm     89% 0 mm
05:19 9.9 °C 8.3 °C 1011.7 hPa Calm     90% 0 mm
05:25 9.8 °C 8.3 °C 1012.1 hPa Calm     90% 0 mm
05:30 9.8 °C 8.2 °C 1012.1 hPa Calm     90% 0 mm
05:35 9.8 °C 8.2 °C 1012.1 hPa Calm     90% 0 mm
05:39 9.8 °C 8.2 °C 1012.1 hPa Calm     90% 0 mm
05:45 9.8 °C 8.4 °C 1012.1 hPa Calm     91% 0 mm
05:50 9.8 °C 8.4 °C 1012.1 hPa Calm     91% 0 mm
05:55 9.8 °C 8.4 °C 1012.1 hPa Calm     91% 0 mm
05:59 9.8 °C 8.4 °C 1012.4 hPa Calm     91% 0 mm
06:05 9.9 °C 8.7 °C 1012.4 hPa Calm     92% 0 mm
06:10 10 °C 8.8 °C 1012.4 hPa Calm     92% 0 mm
06:14 10.1 °C 8.9 °C 1012.8 hPa Calm     92% 0 mm
06:19 10.3 °C 9.3 °C 1012.8 hPa Calm     93% 0 mm
06:25 10.7 °C 9.7 °C 1012.8 hPa Calm     94% 0 mm
06:30 10.8 °C 9.8 °C 1012.8 hPa Calm     94% 0 mm
06:34 10.8 °C 9.8 °C 1012.8 hPa Calm     94% 0 mm
06:39 10.8 °C 9.8 °C 1013.1 hPa Calm     94% 0 mm
06:45 10.9 °C 10 °C 1013.1 hPa Calm     94% 0 mm
06:50 11.1 °C 10.1 °C 1013.1 hPa Calm     94% 0 mm
06:54 11.2 °C 10.3 °C 1013.1 hPa Calm     94% 0 mm
07:00 11.4 °C 10.4 °C 1013.1 hPa Calm     94% 0 mm
07:05 11.6 °C 10.7 °C 1013.1 hPa Calm     94% 0 mm
07:09 11.8 °C 11.1 °C 1013.1 hPa Calm     95% 0 mm
07:14 12.2 °C 11.4 °C 1013.1 hPa Calm   3.2 km/h 95% 0 mm
07:20 12.4 °C 11.7 °C 1013.1 hPa Calm   4.8 km/h 95% 0 mm
07:25 12.8 °C 12 °C 1013.1 hPa Calm   6.4 km/h 95% 0 mm
07:29 13.1 °C 12.3 °C 1013.4 hPa WNW 1.6 km/h 8 km/h 95% 0 mm
07:34 13.6 °C 12.4 °C 1013.4 hPa Calm   8 km/h 93% 0 mm
07:40 13.9 °C 12.1 °C 1013.4 hPa Calm   6.4 km/h 89% 0 mm
07:45 14.2 °C 12.1 °C 1013.4 hPa Calm   6.4 km/h 87% 0 mm
07:49 14.5 °C 12 °C 1013.4 hPa Calm   4.8 km/h 85% 0 mm
07:54 14.9 °C 11.9 °C 1013.4 hPa NW 3.2 km/h 8 km/h 82% 0 mm
08:00 15.2 °C 11.4 °C 1013.8 hPa NW 3.2 km/h 9.7 km/h 78% 0 mm
08:05 15.6 °C 11.4 °C 1013.8 hPa WNW 1.6 km/h 11.3 km/h 76% 0 mm
08:09 15.9 °C 11.3 °C 1013.8 hPa NW 1.6 km/h 11.3 km/h 74% 0 mm
08:15 16.2 °C 10.9 °C 1013.8 hPa NW 1.6 km/h 11.3 km/h 71% 0 mm
08:20 16.6 °C 11.9 °C 1013.8 hPa Calm   8 km/h 74% 0 mm
08:24 16.9 °C 11.4 °C 1013.8 hPa NW 3.2 km/h 11.3 km/h 70% 0 mm
08:30 16.9 °C 10.3 °C 1013.8 hPa NW 3.2 km/h 11.3 km/h 65% 0 mm
08:35 17 °C 10.2 °C 1013.8 hPa NW 3.2 km/h 9.7 km/h 64% 0 mm
08:39 17.2 °C 11 °C 1013.4 hPa WNW 1.6 km/h 8 km/h 67% 0 mm
08:44 17.5 °C 10.8 °C 1013.8 hPa Calm   8 km/h 65% 0 mm
08:50 17.8 °C 11.4 °C 1013.8 hPa Calm   8 km/h 66% 0 mm
08:54 18.1 °C 11.4 °C 1013.8 hPa Calm   4.8 km/h 65% 0 mm
08:59 18.3 °C 11.9 °C 1013.8 hPa Calm   3.2 km/h 66% 0 mm
09:04 18.7 °C 11.6 °C 1013.8 hPa Calm   8 km/h 63% 0 mm
09:10 18.9 °C 12 °C 1013.8 hPa Calm   8 km/h 64% 0 mm
09:14 19.2 °C 11.5 °C 1013.8 hPa Calm   6.4 km/h 61% 0 mm
09:20 19.4 °C 12.2 °C 1013.8 hPa Calm   3.2 km/h 63% 0 mm
09:25 19.4 °C 11 °C 1013.8 hPa Calm   4.8 km/h 58% 0 mm
09:29 19.6 °C 12.1 °C 1013.8 hPa Calm   4.8 km/h 62% 0 mm
09:34 19.8 °C 10.8 °C 1013.8 hPa Calm   8 km/h 56% 0 mm
09:40 19.8 °C 11.6 °C 1013.8 hPa Calm   11.3 km/h 59% 0 mm
09:45 20.2 °C 11.7 °C 1013.8 hPa Calm   11.3 km/h 58% 0 mm
09:49 20.4 °C 11.3 °C 1013.8 hPa Calm   6.4 km/h 56% 0 mm
09:55 20.2 °C 11.7 °C 1013.4 hPa Calm   12.9 km/h 58% 0 mm
09:59 20.2 °C 11.9 °C 1013.8 hPa Calm   12.9 km/h 59% 0 mm
10:05 20.2 °C 11.1 °C 1013.8 hPa Calm   8 km/h 56% 0 mm
10:10 19.9 °C 9.8 °C 1013.8 hPa WNW 8 km/h 14.5 km/h 52% 0 mm
10:14 19.7 °C 10.9 °C 1013.8 hPa Calm   14.5 km/h 57% 0 mm
10:19 19.8 °C 11.3 °C 1013.8 hPa NW 3.2 km/h 14.5 km/h 58% 0 mm
10:25 19.9 °C 11.4 °C 1013.8 hPa NW 1.6 km/h 14.5 km/h 58% 0 mm
10:30 20.1 °C 10.7 °C 1013.8 hPa Calm   8 km/h 55% 0 mm
10:34 20.1 °C 10.5 °C 1013.8 hPa Calm   17.7 km/h 54% 0 mm
10:40 20.3 °C 11 °C 1013.8 hPa NW 1.6 km/h 17.7 km/h 55% 0 mm
10:45 20.6 °C 11.8 °C 1013.8 hPa North 1.6 km/h 17.7 km/h 57% 0 mm
10:49 20.9 °C 11.5 °C 1013.8 hPa Calm   17.7 km/h 55% 0 mm
10:54 21.2 °C 11.5 °C 1013.8 hPa NW 4.8 km/h 11.3 km/h 54% 0 mm
10:59 20.6 °C 10.4 °C 1013.8 hPa WNW 4.8 km/h 17.7 km/h 52% 0 mm
11:05 20.3 °C 11.8 °C 1013.8 hPa Calm   17.7 km/h 58% 0 mm
11:10 20.3 °C 11.3 °C 1013.8 hPa NNE 3.2 km/h 22.5 km/h 56% 0 mm
11:14 20.5 °C 11.7 °C 1013.8 hPa NNE 3.2 km/h 22.5 km/h 57% 0 mm
11:19 20.7 °C 11.1 °C 1013.8 hPa NW 8 km/h 17.7 km/h 54% 0 mm
11:25 20.4 °C 11.7 °C 1013.8 hPa NW 4.8 km/h 22.5 km/h 57% 0 mm
11:29 20.6 °C 11.2 °C 1013.8 hPa NW 1.6 km/h 22.5 km/h 55% 0 mm
11:35 20.4 °C 9.6 °C 1013.8 hPa NW 3.2 km/h 17.7 km/h 50% 0 mm
11:39 20.4 °C 10.5 °C 1013.8 hPa NW 6.4 km/h 20.9 km/h 53% 0 mm
11:44 20.5 °C 10.3 °C 1013.8 hPa NW 3.2 km/h 20.9 km/h 52% 0 mm
11:50 20.6 °C 9.8 °C 1013.8 hPa NW 8 km/h 24.1 km/h 50% 0 mm
11:54 20.7 °C 10.8 °C 1013.8 hPa NW 3.2 km/h 24.1 km/h 53% 0 mm
11:59 20.9 °C 10.9 °C 1013.8 hPa NW 1.6 km/h 22.5 km/h 53% 0 mm
12:05 20.8 °C 11.4 °C 1013.8 hPa WNW 9.7 km/h 19.3 km/h 55% 0 mm
12:09 20.7 °C 10.2 °C 1013.8 hPa NW 8 km/h 29 km/h 51% 0 mm
12:14 20.7 °C 9.9 °C 1014.1 hPa NW 8 km/h 29 km/h 50% 0 mm
12:20 20.8 °C 9.4 °C 1014.1 hPa NW 6.4 km/h 20.9 km/h 48% 0 mm
12:24 20.9 °C 11.6 °C 1013.8 hPa West 3.2 km/h 20.9 km/h 55% 0 mm
12:29 21.3 °C 10.2 °C 1013.8 hPa NW 8 km/h 16.1 km/h 49% 0 mm
12:35 21.4 °C 11.2 °C 1013.8 hPa WNW 3.2 km/h 20.9 km/h 52% 0 mm
12:39 21.3 °C 10.2 °C 1013.8 hPa North 3.2 km/h 20.9 km/h 49% 0 mm
12:44 21.1 °C 9.4 °C 1013.8 hPa West 9.7 km/h 16.1 km/h 47% 0 mm
12:50 21.1 °C 10 °C 1013.8 hPa NW 1.6 km/h 16.1 km/h 49% 0 mm
12:54 21.3 °C 11.6 °C 1013.8 hPa NW 4.8 km/h 14.5 km/h 54% 0 mm
12:59 20.9 °C 8.6 °C 1013.8 hPa WNW 8 km/h 19.3 km/h 45% 0 mm
13:04 20.9 °C 8.9 °C 1013.8 hPa NW 6.4 km/h 19.3 km/h 46% 0 mm
13:10 21.3 °C 9.5 °C 1013.8 hPa NW 6.4 km/h 16.1 km/h 47% 0 mm
13:14 21.3 °C 11.4 °C 1013.8 hPa WNW 3.2 km/h 17.7 km/h 53% 0 mm
13:19 21.6 °C 9.8 °C 1013.8 hPa NNE 3.2 km/h 19.3 km/h 47% 0 mm
13:25 21.8 °C 10.7 °C 1013.8 hPa North 3.2 km/h 19.3 km/h 49% 0 mm
13:29 22.2 °C 10.1 °C 1013.8 hPa NW 6.4 km/h 12.9 km/h 46% 0 mm
13:34 22.2 °C 9.7 °C 1013.8 hPa Calm   12.9 km/h 45% 0 mm
13:40 22.3 °C 9.8 °C 1013.8 hPa NW 3.2 km/h 12.9 km/h 45% 0 mm
13:44 22.3 °C 9.1 °C 1013.8 hPa Calm   8 km/h 43% 0 mm
13:49 22.2 °C 10 °C 1013.8 hPa WNW 8 km/h 16.1 km/h 46% 0 mm
13:54 22.1 °C 9.6 °C 1013.8 hPa WNW 3.2 km/h 16.1 km/h 45% 0 mm
13:59 22 °C 8.8 °C 1013.8 hPa NW 1.6 km/h 12.9 km/h 43% 0 mm
14:05 21.8 °C 10.3 °C 1013.8 hPa WNW 12.9 km/h 22.5 km/h 48% 0 mm
14:09 21.8 °C 10.3 °C 1013.8 hPa NNW 4.8 km/h 22.5 km/h 48% 0 mm
14:14 21.9 °C 9.5 °C 1013.8 hPa WNW 1.6 km/h 16.1 km/h 45% 0 mm
14:20 22.1 °C 10.2 °C 1013.8 hPa NNW 1.6 km/h 11.3 km/h 47% 0 mm
14:24 22.3 °C 10.4 °C 1013.8 hPa WNW 4.8 km/h 11.3 km/h 47% 0 mm
14:29 22.4 °C 11.2 °C 1013.8 hPa NW 3.2 km/h 14.5 km/h 49% 0 mm
14:35 22.7 °C 8.4 °C 1013.8 hPa Calm   14.5 km/h 40% 0 mm
14:39 22.7 °C 9.8 °C 1013.8 hPa NW 3.2 km/h 12.9 km/h 44% 0 mm
14:44 22.4 °C 9.9 °C 1013.8 hPa NNW 3.2 km/h 19.3 km/h 45% 0 mm
14:49 22.1 °C 8.3 °C 1013.8 hPa NW 8 km/h 19.3 km/h 41% 0 mm
14:54 22.1 °C 10.2 °C 1013.8 hPa WNW 1.6 km/h 16.1 km/h 47% 0 mm
14:59 22.1 °C 9.6 °C 1013.8 hPa NW 8 km/h 17.7 km/h 45% 0 mm
15:05 21.9 °C 8.8 °C 1013.8 hPa WNW 8 km/h 17.7 km/h 43% 0 mm
15:09 22 °C 8.8 °C 1013.8 hPa West 3.2 km/h 17.7 km/h 43% 0 mm
15:14 22.3 °C 8.8 °C 1013.8 hPa NW 8 km/h 19.3 km/h 42% 0 mm
15:19 22.2 °C 8.7 °C 1013.8 hPa WNW 6.4 km/h 19.3 km/h 42% 0 mm
15:24 22.4 °C 9.6 °C 1013.4 hPa West 3.2 km/h 16.1 km/h 44% 0 mm
15:29 22.6 °C 9.8 °C 1013.4 hPa West 6.4 km/h 19.3 km/h 44% 0 mm
15:35 22.7 °C 10.8 °C 1013.8 hPa WNW 1.6 km/h 19.3 km/h 47% 0 mm
15:39 22.9 °C 8.6 °C 1013.8 hPa Calm   9.7 km/h 40% 0 mm
15:44 23.2 °C 10.9 °C 1013.8 hPa NW 1.6 km/h 8 km/h 46% 0 mm
15:49 23.2 °C 8.4 °C 1013.4 hPa WNW 6.4 km/h 12.9 km/h 39% 0 mm
15:54 22.8 °C 8.6 °C 1013.8 hPa NW 1.6 km/h 12.9 km/h 40% 0 mm
15:59 23.1 °C 9.1 °C 1013.4 hPa NW 1.6 km/h 9.7 km/h 41% 0 mm
16:04 22.9 °C 9 °C 1013.4 hPa NW 1.6 km/h 6.4 km/h 41% 0 mm
16:09 23.1 °C 10.2 °C 1013.4 hPa Calm   6.4 km/h 44% 0 mm
16:14 23.1 °C 9.8 °C 1013.4 hPa NW 1.6 km/h 11.3 km/h 43% 0 mm
16:19 23.1 °C 9.2 °C 1013.4 hPa WNW 1.6 km/h 11.3 km/h 41% 0 mm
16:25 23.2 °C 11.6 °C 1013.4 hPa NNW 1.6 km/h 11.3 km/h 48% 0 mm
16:29 23.4 °C 9.1 °C 1013.4 hPa NW 3.2 km/h 12.9 km/h 40% 0 mm
16:34 22.8 °C 10.3 °C 1013.4 hPa NW 9.7 km/h 17.7 km/h 45% 0 mm
16:40 22.7 °C 9.1 °C 1013.4 hPa NW 4.8 km/h 17.7 km/h 42% 0 mm
16:44 22.8 °C 9.6 °C 1013.4 hPa NW 4.8 km/h 12.9 km/h 43% 0 mm
16:49 23.1 °C 11.2 °C 1013.4 hPa WNW 1.6 km/h 12.9 km/h 47% 0 mm
16:54 23.1 °C 8.8 °C 1013.4 hPa NW 1.6 km/h 14.5 km/h 40% 0 mm
16:59 23.1 °C 9.1 °C 1013.4 hPa Calm   14.5 km/h 41% 0 mm
17:04 23.1 °C 8.4 °C 1013.4 hPa NW 3.2 km/h 16.1 km/h 39% 0 mm
17:09 22.9 °C 10.3 °C 1013.4 hPa NW 4.8 km/h 16.1 km/h 45% 0 mm
17:14 22.6 °C 9.4 °C 1013.4 hPa NW 1.6 km/h 12.9 km/h 43% 0 mm
17:19 22.6 °C 10.4 °C 1013.4 hPa NW 6.4 km/h 14.5 km/h 46% 0 mm
17:24 22.6 °C 10.1 °C 1013.4 hPa Calm   14.5 km/h 45% 0 mm
17:30 22.7 °C 8.4 °C 1013.4 hPa NW 8 km/h 20.9 km/h 40% 0 mm
17:34 22.3 °C 9.1 °C 1013.4 hPa WNW 8 km/h 20.9 km/h 43% 0 mm
17:39 22.2 °C 8.7 °C 1013.4 hPa NW 4.8 km/h 19.3 km/h 42% 0 mm
17:44 22.3 °C 9.8 °C 1013.4 hPa NW 3.2 km/h 16.1 km/h 45% 0 mm
17:49 22.2 °C 10.1 °C 1013.4 hPa WNW 4.8 km/h 20.9 km/h 46% 0 mm
17:54 22.2 °C 9.1 °C 1013.4 hPa NW 6.4 km/h 20.9 km/h 43% 0 mm
17:59 22.3 °C 9.8 °C 1013.4 hPa NW 1.6 km/h 11.3 km/h 45% 0 mm
18:04 22.3 °C 8.8 °C 1013.4 hPa NNE 1.6 km/h 9.7 km/h 42% 0 mm
18:09 22.5 °C 8.9 °C 1013.4 hPa NW 1.6 km/h 9.7 km/h 42% 0 mm
18:14 22.6 °C 10.4 °C 1013.4 hPa NW 1.6 km/h 16.1 km/h 46% 0 mm
18:19 22.5 °C 10 °C 1013.4 hPa WNW 1.6 km/h 16.1 km/h 45% 0 mm
18:24 22.6 °C 10.1 °C 1013.4 hPa Calm   4.8 km/h 45% 0 mm
18:29 22.6 °C 10.7 °C 1013.4 hPa Calm   9.7 km/h 47% 0 mm
18:34 22.6 °C 10.1 °C 1013.4 hPa NE 1.6 km/h 9.7 km/h 45% 0 mm
18:39 22.4 °C 10.6 °C 1013.4 hPa Calm   6.4 km/h 47% 0 mm
18:44 22.3 °C 10.5 °C 1013.4 hPa Calm   6.4 km/h 47% 0 mm
18:49 22.2 °C 9.7 °C 1013.4 hPa NE 1.6 km/h 6.4 km/h 45% 0 mm
18:54 22 °C 10.5 °C 1013.4 hPa Calm   6.4 km/h 48% 0 mm
18:59 22 °C 9.6 °C 1013.4 hPa Calm   3.2 km/h 45% 0 mm
19:04 22.1 °C 9.6 °C 1013.4 hPa Calm   4.8 km/h 45% 0 mm
19:09 21.9 °C 9.8 °C 1013.4 hPa NW 1.6 km/h 11.3 km/h 46% 0 mm
19:14 21.8 °C 9.3 °C 1013.4 hPa NW 1.6 km/h 11.3 km/h 45% 0 mm
19:19 21.6 °C 9.8 °C 1013.4 hPa Calm   8 km/h 47% 0 mm
19:24 21.5 °C 10.7 °C 1013.8 hPa Calm   4.8 km/h 50% 0 mm
19:29 21.3 °C 9.8 °C 1013.8 hPa Calm     48% 0 mm
19:34 21.2 °C 11.3 °C 1013.8 hPa Calm     53% 0 mm
19:39 21.2 °C 10.3 °C 1013.8 hPa Calm   1.6 km/h 50% 0 mm
19:44 21 °C 11.1 °C 1013.8 hPa Calm   1.6 km/h 53% 0 mm
19:49 20.8 °C 10.6 °C 1013.8 hPa Calm     52% 0 mm
19:54 20.6 °C 10.4 °C 1013.8 hPa Calm     52% 0 mm
19:59 20.3 °C 10.7 °C 1013.8 hPa Calm     54% 0 mm
20:05 19.9 °C 10.4 °C 1013.8 hPa Calm   1.6 km/h 54% 0 mm
20:14 19 °C 10.3 °C 1013.8 hPa Calm     57% 0 mm
20:19 18.3 °C 10.7 °C 1013.8 hPa Calm     61% 0 mm
20:24 17.7 °C 10.8 °C 1013.8 hPa Calm     64% 0 mm
20:29 17 °C 10.2 °C 1013.8 hPa Calm     64% 0 mm
20:34 16.3 °C 9.9 °C 1013.8 hPa Calm     66% 0 mm
20:39 15.6 °C 9.5 °C 1013.8 hPa Calm     67% 0 mm
20:44 15 °C 9.6 °C 1013.8 hPa Calm     70% 0 mm
20:49 14.6 °C 9.4 °C 1013.8 hPa Calm     71% 0 mm
20:54 14.2 °C 9.2 °C 1013.8 hPa Calm     72% 0 mm
20:59 13.8 °C 9.3 °C 1013.8 hPa Calm     74% 0 mm
21:04 13.5 °C 9.2 °C 1013.8 hPa Calm     75% 0 mm
21:09 13.3 °C 9.2 °C 1013.8 hPa Calm     76% 0 mm
21:14 13.1 °C 9.1 °C 1014.1 hPa Calm     77% 0 mm
21:19 12.8 °C 8.9 °C 1014.1 hPa Calm     77% 0 mm
21:24 12.6 °C 8.9 °C 1014.1 hPa Calm     78% 0 mm
21:29 12.5 °C 8.6 °C 1014.1 hPa Calm     77% 0 mm
21:35 12.4 °C 8.7 °C 1014.1 hPa Calm     78% 0 mm
21:39 12.3 °C 8.8 °C 1014.1 hPa Calm     79% 0 mm
21:44 12.2 °C 8.5 °C 1014.1 hPa Calm     78% 0 mm
21:49 12.2 °C 8.5 °C 1014.1 hPa Calm     78% 0 mm
21:54 12.2 °C 8.6 °C 1014.1 hPa Calm     79% 0 mm
21:59 12.1 °C 8.6 °C 1014.1 hPa Calm     79% 0 mm
22:04 12 °C 8.7 °C 1014.1 hPa Calm     80% 0 mm
22:09 11.9 °C 8.6 °C 1014.1 hPa Calm     80% 0 mm
22:14 11.8 °C 8.3 °C 1014.1 hPa Calm     79% 0 mm
22:19 12 °C 8.3 °C 1014.1 hPa Calm     78% 0 mm
22:24 12.1 °C 8.4 °C 1014.1 hPa Calm     78% 0 mm
22:29 12.3 °C 8.6 °C 1014.1 hPa Calm     78% 0 mm
22:34 12.4 °C 8.5 °C 1014.1 hPa Calm     77% 0 mm
22:39 12.4 °C 8.3 °C 1014.1 hPa Calm     76% 0 mm
22:45 12.5 °C 8.4 °C 1014.1 hPa Calm     76% 0 mm
22:54 12.5 °C 8.4 °C 1014.1 hPa Calm     76% 0 mm
22:59 12.6 °C 8.5 °C 1014.1 hPa Calm     76% 0 mm
23:04 12.6 °C 8.5 °C 1014.1 hPa Calm     76% 0 mm
23:09 12.6 °C 8.4 °C 1014.1 hPa Calm     76% 0 mm
23:14 12.6 °C 8.4 °C 1014.1 hPa Calm     76% 0 mm
23:19 12.7 °C 8.3 °C 1014.1 hPa Calm     75% 0 mm
23:24 12.7 °C 8.2 °C 1014.1 hPa Calm     74% 0 mm
23:29 12.8 °C 8.3 °C 1014.1 hPa Calm     74% 0 mm
23:34 12.8 °C 8.4 °C 1014.1 hPa Calm     75% 0 mm
23:39 12.7 °C 8.4 °C 1014.1 hPa Calm   1.6 km/h 75% 0 mm
23:44 12.7 °C 8.7 °C 1014.1 hPa Calm   1.6 km/h 77% 0 mm
23:49 12.5 °C 8.8 °C 1014.1 hPa Calm     78% 0 mm
23:54 12.2 °C 8.7 °C 1014.1 hPa Calm     79% 0 mm
23:59 12.1 °C 8.7 °C 1014.1 hPa Calm     80% 0 mm
Westford Weather
Compliments of Weather Underground

 
 
Current Radar Loop:

Copyright © WestfordWeather.net 2007-2014. All rights reserved.